createdAt,value
2023-01-20T00:00:24.087Z,2.10
2023-01-20T00:05:26.821Z,2.20
2023-01-20T00:10:30.827Z,2.20
2023-01-20T00:15:33.508Z,2.20
2023-01-20T00:20:36.226Z,2.20
2023-01-20T00:25:40.453Z,2.10
2023-01-20T00:30:43.361Z,2.20
2023-01-20T00:35:46.109Z,2.20
2023-01-20T00:40:55.966Z,2.30
2023-01-20T00:45:58.694Z,2.30
2023-01-20T00:51:01.623Z,2.30
2023-01-20T00:56:06.321Z,2.20
2023-01-20T01:01:09.069Z,2.30
2023-01-20T01:06:15.536Z,2.20
2023-01-20T01:11:19.763Z,2.20
2023-01-20T01:16:22.519Z,2.20
2023-01-20T01:21:25.256Z,2.20
2023-01-20T01:26:29.257Z,2.30
2023-01-20T01:31:31.950Z,2.30
2023-01-20T01:36:34.648Z,2.30
2023-01-20T01:41:38.703Z,2.30
2023-01-20T01:46:42.145Z,2.30
2023-01-20T01:51:49.177Z,2.40
2023-01-20T01:56:53.755Z,2.30
2023-01-20T02:01:56.963Z,2.20
2023-01-20T02:07:04.470Z,2.20
2023-01-20T02:12:12.436Z,2.20
2023-01-20T02:17:22.020Z,2.20
2023-01-20T02:22:35.590Z,2.20
2023-01-20T02:28:06.389Z,2.30
2023-01-20T02:33:22.561Z,2.30
2023-01-20T02:38:31.886Z,2.30
2023-01-20T02:43:39.498Z,2.50
2023-01-20T02:48:49.043Z,2.50
2023-01-20T02:53:55.966Z,2.50
2023-01-20T02:59:01.956Z,2.60
2023-01-20T03:04:09.500Z,2.40
2023-01-20T03:09:16.837Z,2.30
2023-01-20T03:14:19.926Z,2.30
2023-01-20T03:19:23.936Z,2.40
2023-01-20T03:24:29.892Z,2.50
2023-01-20T03:29:32.591Z,2.60
2023-01-20T03:34:39.452Z,2.50
2023-01-20T03:39:42.220Z,2.50
2023-01-20T03:44:57.072Z,2.30
2023-01-20T03:50:07.587Z,2.20
2023-01-20T03:55:15.284Z,2.20
2023-01-20T04:00:21.019Z,2.10
2023-01-20T04:05:26.409Z,2.10
2023-01-20T04:10:39.499Z,2.10
2023-01-20T04:15:48.881Z,2.30
2023-01-20T04:20:59.714Z,2.30
2023-01-20T04:26:09.985Z,2.20
2023-01-20T04:31:29.199Z,2.10
2023-01-20T04:36:47.356Z,2.00
2023-01-20T04:41:55.500Z,2.00
2023-01-20T04:47:00.358Z,2.10
2023-01-20T04:52:07.054Z,2.00
2023-01-20T04:57:17.626Z,2.10
2023-01-20T05:02:24.998Z,2.00
2023-01-20T05:07:41.909Z,2.10
2023-01-20T05:12:51.687Z,2.00
2023-01-20T05:17:58.614Z,1.90
2023-01-20T05:23:10.201Z,1.80
2023-01-20T05:28:17.438Z,1.90
2023-01-20T05:33:25.001Z,1.80
2023-01-20T05:38:41.029Z,1.70
2023-01-20T05:43:49.879Z,1.70
2023-01-20T05:48:54.973Z,1.60
2023-01-20T05:54:08.500Z,1.80
2023-01-20T05:59:17.758Z,1.80
2023-01-20T06:04:23.089Z,1.80
2023-01-20T06:09:52.286Z,2.00
2023-01-20T06:20:37.805Z,1.80
2023-01-20T06:26:02.464Z,1.70
2023-01-20T06:31:07.135Z,1.80
2023-01-20T06:36:26.768Z,1.90
2023-01-20T06:41:39.123Z,1.80
2023-01-20T06:46:46.753Z,1.80
2023-01-20T06:51:57.417Z,1.90
2023-01-20T06:57:06.168Z,1.80
2023-01-20T07:02:13.343Z,1.80
2023-01-20T07:07:16.120Z,1.80
2023-01-20T07:12:20.075Z,1.90
2023-01-20T07:17:22.742Z,2.00
2023-01-20T07:22:25.504Z,2.00
2023-01-20T07:27:29.465Z,1.90
2023-01-20T07:32:32.125Z,2.00
2023-01-20T07:37:35.335Z,2.00
2023-01-20T07:42:39.691Z,1.90
2023-01-20T07:47:42.470Z,1.90
2023-01-20T07:52:45.151Z,2.00
2023-01-20T07:57:50.637Z,1.90
2023-01-20T08:02:53.265Z,2.00
2023-01-20T08:07:55.945Z,2.00
2023-01-20T08:13:00.387Z,2.00
2023-01-20T08:18:03.062Z,2.10
2023-01-20T08:23:05.821Z,2.20
2023-01-20T08:28:09.823Z,2.40
2023-01-20T08:33:12.509Z,2.50
2023-01-20T08:38:16.198Z,2.50
2023-01-20T08:43:20.179Z,2.60
2023-01-20T08:48:22.816Z,2.50
2023-01-20T08:53:25.700Z,2.50
2023-01-20T08:58:30.891Z,2.60
2023-01-20T09:03:37.333Z,2.70
2023-01-20T09:08:45.131Z,2.70
2023-01-20T09:13:52.478Z,2.80
2023-01-20T09:18:59.315Z,2.90
2023-01-20T09:24:02.642Z,2.90
2023-01-20T09:29:12.940Z,2.80
2023-01-20T09:34:30.471Z,2.90
2023-01-20T09:39:52.836Z,2.90
2023-01-20T09:45:26.606Z,3.00
2023-01-20T09:51:01.976Z,3.10
2023-01-20T09:56:12.528Z,3.10
2023-01-20T10:01:21.930Z,3.30
2023-01-20T10:06:31.609Z,3.20
2023-01-20T10:11:38.810Z,3.20
2023-01-20T10:16:49.414Z,3.20
2023-01-20T10:21:54.921Z,3.20
2023-01-20T10:27:02.415Z,3.20
2023-01-20T10:32:12.050Z,3.30
2023-01-20T10:37:15.705Z,3.20
2023-01-20T10:42:19.701Z,3.20
2023-01-20T10:47:38.765Z,3.10
2023-01-20T10:52:51.137Z,3.00
2023-01-20T10:57:57.962Z,3.10
2023-01-20T11:03:06.137Z,3.20
2023-01-20T11:08:15.166Z,3.10
2023-01-20T11:13:18.115Z,3.00
2023-01-20T11:18:30.659Z,3.10
2023-01-20T11:23:39.879Z,3.30
2023-01-20T11:28:50.404Z,3.30
2023-01-20T11:33:59.675Z,3.50
2023-01-20T11:39:02.378Z,3.60
2023-01-20T11:44:07.709Z,3.60
2023-01-20T11:49:21.957Z,3.60
2023-01-20T11:54:26.937Z,3.60
2023-01-20T11:59:31.831Z,3.60
2023-01-20T12:05:09.294Z,3.60
2023-01-20T12:10:17.621Z,3.60
2023-01-20T12:15:22.737Z,3.60
2023-01-20T12:20:35.438Z,3.70
2023-01-20T12:25:49.951Z,3.70
2023-01-20T12:30:59.859Z,3.70
2023-01-20T12:36:36.812Z,3.50
2023-01-20T12:42:16.043Z,3.40
2023-01-20T12:47:32.335Z,3.30
2023-01-20T12:52:49.581Z,3.30
2023-01-20T12:58:01.626Z,3.30
2023-01-20T13:03:50.535Z,3.30
2023-01-20T13:09:03.782Z,3.30
2023-01-20T13:14:13.390Z,3.30
2023-01-20T13:19:20.589Z,3.20
2023-01-20T13:24:29.263Z,3.30
2023-01-20T13:29:55.209Z,3.40
2023-01-20T13:34:58.675Z,3.50
2023-01-20T13:40:02.814Z,3.40
2023-01-20T13:45:22.117Z,3.50
2023-01-20T13:50:27.391Z,3.40
2023-01-20T13:55:32.037Z,3.30
2023-01-20T14:00:34.667Z,3.30
2023-01-20T14:05:37.578Z,3.30
2023-01-20T14:10:41.607Z,3.30
2023-01-20T14:15:44.446Z,3.40
2023-01-20T14:21:03.292Z,3.40
2023-01-20T14:26:13.146Z,3.30
2023-01-20T14:31:35.243Z,3.20
2023-01-20T14:36:38.166Z,3.20
2023-01-20T14:41:49.710Z,3.00
2023-01-20T14:46:54.597Z,3.00
2023-01-20T14:51:57.889Z,3.00
2023-01-20T14:57:13.454Z,2.90
2023-01-20T15:02:27.211Z,2.80
2023-01-20T15:07:30.865Z,2.80
2023-01-20T15:12:54.389Z,2.80
2023-01-20T15:18:17.192Z,2.70
2023-01-20T15:23:32.957Z,2.50
2023-01-20T15:28:38.873Z,2.50
2023-01-20T15:33:41.713Z,2.50
2023-01-20T15:38:44.374Z,2.40
2023-01-20T15:43:49.147Z,2.30
2023-01-20T15:48:51.780Z,2.20
2023-01-20T15:53:54.426Z,2.20
2023-01-20T15:58:58.845Z,2.30
2023-01-20T16:04:01.571Z,2.30
2023-01-20T16:09:16.225Z,2.30
2023-01-20T16:14:20.259Z,2.30
2023-01-20T16:19:22.942Z,2.20
2023-01-20T16:24:25.848Z,2.20
2023-01-20T16:29:29.878Z,2.10
2023-01-20T16:34:32.542Z,2.20
2023-01-20T16:39:35.230Z,2.30
2023-01-20T16:44:39.748Z,2.20
2023-01-20T16:49:42.430Z,2.20
2023-01-20T16:54:45.254Z,2.20
2023-01-20T16:59:49.283Z,2.20
2023-01-20T17:04:52.177Z,2.20
2023-01-20T17:09:55.781Z,2.10
2023-01-20T17:15:00.035Z,2.10
2023-01-20T17:20:02.709Z,2.10
2023-01-20T17:25:06.588Z,2.10
2023-01-20T17:30:11.915Z,2.00
2023-01-20T17:35:14.769Z,2.00
2023-01-20T17:40:17.902Z,2.00
2023-01-20T17:45:22.232Z,2.00
2023-01-20T17:50:24.963Z,2.00
2023-01-20T17:55:27.640Z,2.00
2023-01-20T18:00:31.604Z,2.00
2023-01-20T18:05:35.788Z,2.00
2023-01-20T18:10:38.493Z,1.90
2023-01-20T18:15:42.808Z,2.00
2023-01-20T18:20:45.630Z,2.00
2023-01-20T18:25:53.600Z,2.00
2023-01-20T18:31:03.050Z,2.00
2023-01-20T18:36:06.935Z,1.90
2023-01-20T18:41:10.567Z,1.90
2023-01-20T18:46:14.829Z,2.00
2023-01-20T18:51:21.493Z,2.00
2023-01-20T18:56:25.250Z,2.00
2023-01-20T19:01:32.365Z,2.00
2023-01-20T19:06:38.728Z,1.90
2023-01-20T19:11:43.259Z,1.80
2023-01-20T19:16:49.399Z,1.80
2023-01-20T19:21:52.787Z,1.90
2023-01-20T19:26:55.608Z,1.90
2023-01-20T19:31:59.673Z,1.80
2023-01-20T19:37:02.743Z,1.90
2023-01-20T19:42:05.502Z,1.80
2023-01-20T19:47:09.657Z,1.80
2023-01-20T19:52:12.582Z,1.90
2023-01-20T19:57:15.904Z,1.80
2023-01-20T20:02:20.309Z,1.80
2023-01-20T20:07:23.471Z,1.60
2023-01-20T20:12:26.573Z,1.60
2023-01-20T20:17:31.098Z,1.50
2023-01-20T20:22:33.788Z,1.50
2023-01-20T20:27:36.507Z,1.60
2023-01-20T20:32:43.872Z,1.60
2023-01-20T20:37:47.774Z,1.40
2023-01-20T20:42:50.848Z,1.40
2023-01-20T20:47:54.907Z,1.50
2023-01-20T20:52:57.795Z,1.50
2023-01-20T20:58:00.535Z,1.40
2023-01-20T21:03:06.787Z,1.40
2023-01-20T21:08:09.574Z,1.30
2023-01-20T21:13:12.665Z,1.40
2023-01-20T21:18:16.731Z,1.30
2023-01-20T21:23:19.364Z,1.30
2023-01-20T21:28:22.145Z,1.40
2023-01-20T21:33:26.436Z,1.30
2023-01-20T21:38:29.190Z,1.30
2023-01-20T21:43:50.327Z,1.20
2023-01-20T21:49:12.191Z,1.20
2023-01-20T21:54:14.889Z,1.30
2023-01-20T21:59:17.717Z,1.20
2023-01-20T22:04:21.987Z,1.30
2023-01-20T22:09:30.704Z,1.40
2023-01-20T22:14:38.793Z,1.50
2023-01-20T22:19:48.853Z,1.30
2023-01-20T22:24:56.366Z,1.20
2023-01-20T22:30:09.159Z,1.20
2023-01-20T22:36:14.583Z,1.40
2023-01-20T22:41:26.738Z,1.30
2023-01-20T22:46:43.626Z,1.20
2023-01-20T22:51:55.827Z,1.20
2023-01-20T22:57:18.265Z,1.20
2023-01-20T23:02:29.743Z,1.10
2023-01-20T23:07:42.478Z,1.20
2023-01-20T23:12:45.558Z,1.20
2023-01-20T23:17:49.433Z,1.00
2023-01-20T23:22:53.793Z,1.00
2023-01-20T23:27:59.969Z,0.90
2023-01-20T23:33:03.216Z,0.90
2023-01-20T23:38:15.736Z,0.90
2023-01-20T23:43:22.389Z,1.00
2023-01-20T23:48:27.570Z,1.00
2023-01-20T23:53:38.382Z,1.00
